Terminal Aerodrome Forecast
Issued by NWS

Home | Current Version | Previous Version | Text Only | Print | Product List | Glossary On
Versions: 1 2 3 4 5 6 7 8 9 10 11 12
906
FTUS43 KILX 261131
TAFDEC
TAF
KDEC 261131Z 2612/2712 18015KT P6SM VCSH SCT040 OVC060
     FM262100 18013KT 3SM SHRA VCTS OVC025CB
     FM270200 22007KT 4SM SHRA VCTS OVC020CB
     FM270500 22007KT 6SM SHRA OVC020
     FM270800 27010G19KT P6SM OVC008=

USA.gov is the U.S. government's official web portal to all federal, state and local government web resources and services.